sensor_id;sensor_type;location;lat;lon;timestamp;P1;durP1;ratioP1;P2;durP2;ratioP2
78931;SDS011;68331;53.362;55.932;2024-03-08T00:00:16;5.30;;;4.35;;
78931;SDS011;68331;53.362;55.932;2024-03-08T00:02:46;5.53;;;3.92;;
78931;SDS011;68331;53.362;55.932;2024-03-08T00:05:13;6.70;;;4.43;;
78931;SDS011;68331;53.362;55.932;2024-03-08T00:07:40;5.10;;;3.58;;
78931;SDS011;68331;53.362;55.932;2024-03-08T00:10:07;5.85;;;4.05;;
78931;SDS011;68331;53.362;55.932;2024-03-08T00:12:39;5.25;;;3.75;;
78931;SDS011;68331;53.362;55.932;2024-03-08T00:15:11;5.40;;;4.20;;
78931;SDS011;68331;53.362;55.932;2024-03-08T00:17:41;9.85;;;4.20;;
78931;SDS011;68331;53.362;55.932;2024-03-08T00:20:08;5.28;;;4.30;;
78931;SDS011;68331;53.362;55.932;2024-03-08T00:22:34;7.05;;;4.35;;
78931;SDS011;68331;53.362;55.932;2024-03-08T00:25:02;7.35;;;4.70;;
78931;SDS011;68331;53.362;55.932;2024-03-08T00:27:30;6.15;;;4.82;;
78931;SDS011;68331;53.362;55.932;2024-03-08T00:29:59;7.03;;;4.50;;
78931;SDS011;68331;53.362;55.932;2024-03-08T00:32:26;6.05;;;4.28;;
78931;SDS011;68331;53.362;55.932;2024-03-08T00:34:55;5.15;;;3.30;;
78931;SDS011;68331;53.362;55.932;2024-03-08T00:37:21;7.75;;;5.28;;
78931;SDS011;68331;53.362;55.932;2024-03-08T00:39:48;5.40;;;3.17;;
78931;SDS011;68331;53.362;55.932;2024-03-08T00:42:18;3.40;;;3.10;;
78931;SDS011;68331;53.362;55.932;2024-03-08T00:44:44;6.65;;;4.57;;
78931;SDS011;68331;53.362;55.932;2024-03-08T00:47:10;5.03;;;4.22;;
78931;SDS011;68331;53.362;55.932;2024-03-08T00:49:36;11.93;;;4.25;;
78931;SDS011;68331;53.362;55.932;2024-03-08T00:52:04;8.73;;;4.50;;
78931;SDS011;68331;53.362;55.932;2024-03-08T00:54:34;5.05;;;3.75;;
78931;SDS011;68331;53.362;55.932;2024-03-08T00:57:02;7.43;;;3.88;;
78931;SDS011;68331;53.362;55.932;2024-03-08T00:59:29;5.97;;;4.25;;
78931;SDS011;68331;53.362;55.932;2024-03-08T01:01:58;9.77;;;5.00;;
78931;SDS011;68331;53.362;55.932;2024-03-08T01:04:26;3.50;;;3.17;;
78931;SDS011;68331;53.362;55.932;2024-03-08T01:06:56;4.63;;;3.95;;
78931;SDS011;68331;53.362;55.932;2024-03-08T01:09:23;5.45;;;4.38;;
78931;SDS011;68331;53.362;55.932;2024-03-08T01:11:50;4.78;;;4.05;;
78931;SDS011;68331;53.362;55.932;2024-03-08T01:14:16;4.88;;;4.47;;
78931;SDS011;68331;53.362;55.932;2024-03-08T01:16:42;7.07;;;4.63;;
78931;SDS011;68331;53.362;55.932;2024-03-08T01:19:08;4.88;;;4.32;;
78931;SDS011;68331;53.362;55.932;2024-03-08T01:21:34;7.82;;;5.40;;
78931;SDS011;68331;53.362;55.932;2024-03-08T01:24:00;7.03;;;4.72;;
78931;SDS011;68331;53.362;55.932;2024-03-08T01:26:26;5.10;;;3.88;;
78931;SDS011;68331;53.362;55.932;2024-03-08T01:28:52;7.45;;;4.55;;
78931;SDS011;68331;53.362;55.932;2024-03-08T01:31:18;6.30;;;5.05;;
78931;SDS011;68331;53.362;55.932;2024-03-08T01:33:45;4.80;;;4.47;;
78931;SDS011;68331;53.362;55.932;2024-03-08T01:36:11;5.72;;;4.40;;
78931;SDS011;68331;53.362;55.932;2024-03-08T01:38:41;5.38;;;4.75;;
78931;SDS011;68331;53.362;55.932;2024-03-08T01:41:08;7.72;;;4.57;;
78931;SDS011;68331;53.362;55.932;2024-03-08T01:43:34;5.00;;;4.07;;
78931;SDS011;68331;53.362;55.932;2024-03-08T01:46:01;7.93;;;5.00;;
78931;SDS011;68331;53.362;55.932;2024-03-08T01:48:28;6.80;;;5.65;;
78931;SDS011;68331;53.362;55.932;2024-03-08T01:50:55;9.65;;;5.45;;
78931;SDS011;68331;53.362;55.932;2024-03-08T01:53:24;6.10;;;4.95;;
78931;SDS011;68331;53.362;55.932;2024-03-08T01:55:50;13.73;;;5.25;;
78931;SDS011;68331;53.362;55.932;2024-03-08T01:58:23;5.72;;;4.47;;
78931;SDS011;68331;53.362;55.932;2024-03-08T02:00:50;6.55;;;4.65;;
78931;SDS011;68331;53.362;55.932;2024-03-08T02:03:16;5.28;;;4.70;;
78931;SDS011;68331;53.362;55.932;2024-03-08T02:05:42;7.80;;;4.63;;
78931;SDS011;68331;53.362;55.932;2024-03-08T02:08:11;9.18;;;5.68;;
78931;SDS011;68331;53.362;55.932;2024-03-08T02:10:44;7.35;;;6.10;;
78931;SDS011;68331;53.362;55.932;2024-03-08T02:13:11;7.72;;;4.90;;
78931;SDS011;68331;53.362;55.932;2024-03-08T02:18:40;11.20;;;6.57;;
78931;SDS011;68331;53.362;55.932;2024-03-08T02:21:06;6.63;;;5.03;;
78931;SDS011;68331;53.362;55.932;2024-03-08T02:23:34;4.85;;;4.28;;
78931;SDS011;68331;53.362;55.932;2024-03-08T02:26:01;8.45;;;5.68;;
78931;SDS011;68331;53.362;55.932;2024-03-08T02:28:27;10.02;;;5.47;;
78931;SDS011;68331;53.362;55.932;2024-03-08T02:30:54;8.75;;;5.50;;
78931;SDS011;68331;53.362;55.932;2024-03-08T02:33:24;6.95;;;4.70;;
78931;SDS011;68331;53.362;55.932;2024-03-08T02:35:52;5.28;;;4.78;;
78931;SDS011;68331;53.362;55.932;2024-03-08T02:38:18;11.80;;;4.38;;
78931;SDS011;68331;53.362;55.932;2024-03-08T02:40:46;7.50;;;5.40;;
78931;SDS011;68331;53.362;55.932;2024-03-08T02:43:14;5.18;;;4.38;;
78931;SDS011;68331;53.362;55.932;2024-03-08T02:45:41;6.65;;;3.53;;
78931;SDS011;68331;53.362;55.932;2024-03-08T02:48:08;5.30;;;4.80;;
78931;SDS011;68331;53.362;55.932;2024-03-08T02:50:34;5.78;;;5.22;;
78931;SDS011;68331;53.362;55.932;2024-03-08T02:53:02;4.90;;;4.18;;
78931;SDS011;68331;53.362;55.932;2024-03-08T02:55:29;3.53;;;3.22;;
78931;SDS011;68331;53.362;55.932;2024-03-08T02:57:55;5.53;;;4.15;;
78931;SDS011;68331;53.362;55.932;2024-03-08T03:00:22;4.97;;;4.00;;
78931;SDS011;68331;53.362;55.932;2024-03-08T03:02:50;5.28;;;3.78;;
78931;SDS011;68331;53.362;55.932;2024-03-08T03:05:22;5.88;;;5.28;;
78931;SDS011;68331;53.362;55.932;2024-03-08T03:07:49;5.93;;;4.07;;
78931;SDS011;68331;53.362;55.932;2024-03-08T03:10:18;6.53;;;4.60;;
78931;SDS011;68331;53.362;55.932;2024-03-08T03:12:45;6.80;;;4.72;;
78931;SDS011;68331;53.362;55.932;2024-03-08T03:15:12;4.72;;;4.30;;
78931;SDS011;68331;53.362;55.932;2024-03-08T03:17:41;6.05;;;5.43;;
78931;SDS011;68331;53.362;55.932;2024-03-08T03:20:12;5.75;;;4.72;;
78931;SDS011;68331;53.362;55.932;2024-03-08T03:22:48;5.78;;;4.90;;
78931;SDS011;68331;53.362;55.932;2024-03-08T03:25:18;8.00;;;5.45;;
78931;SDS011;68331;53.362;55.932;2024-03-08T03:27:54;10.25;;;5.53;;
78931;SDS011;68331;53.362;55.932;2024-03-08T03:30:24;7.47;;;5.30;;
78931;SDS011;68331;53.362;55.932;2024-03-08T03:32:53;9.07;;;6.07;;
78931;SDS011;68331;53.362;55.932;2024-03-08T03:35:21;8.50;;;5.78;;
78931;SDS011;68331;53.362;55.932;2024-03-08T03:37:48;8.02;;;5.97;;
78931;SDS011;68331;53.362;55.932;2024-03-08T03:40:35;7.43;;;4.97;;
78931;SDS011;68331;53.362;55.932;2024-03-08T03:43:06;6.55;;;5.18;;
78931;SDS011;68331;53.362;55.932;2024-03-08T03:45:33;7.30;;;6.60;;
78931;SDS011;68331;53.362;55.932;2024-03-08T03:50:28;7.68;;;5.63;;
78931;SDS011;68331;53.362;55.932;2024-03-08T03:52:54;7.13;;;5.07;;
78931;SDS011;68331;53.362;55.932;2024-03-08T03:55:19;8.35;;;5.55;;
78931;SDS011;68331;53.362;55.932;2024-03-08T03:57:47;7.95;;;4.82;;
78931;SDS011;68331;53.362;55.932;2024-03-08T04:00:13;9.65;;;5.68;;
78931;SDS011;68331;53.362;55.932;2024-03-08T04:02:41;11.88;;;6.93;;
78931;SDS011;68331;53.362;55.932;2024-03-08T04:05:08;10.00;;;5.80;;
78931;SDS011;68331;53.362;55.932;2024-03-08T04:07:35;6.90;;;6.18;;
78931;SDS011;68331;53.362;55.932;2024-03-08T04:10:02;7.07;;;5.47;;
78931;SDS011;68331;53.362;55.932;2024-03-08T04:12:30;8.32;;;5.72;;
78931;SDS011;68331;53.362;55.932;2024-03-08T04:14:56;14.60;;;6.55;;
78931;SDS011;68331;53.362;55.932;2024-03-08T04:17:22;6.60;;;5.07;;
78931;SDS011;68331;53.362;55.932;2024-03-08T04:19:50;10.95;;;7.05;;
78931;SDS011;68331;53.362;55.932;2024-03-08T04:22:16;7.97;;;5.78;;
78931;SDS011;68331;53.362;55.932;2024-03-08T04:24:46;8.55;;;5.85;;
78931;SDS011;68331;53.362;55.932;2024-03-08T04:27:13;9.13;;;5.35;;
78931;SDS011;68331;53.362;55.932;2024-03-08T04:29:40;6.68;;;5.28;;
78931;SDS011;68331;53.362;55.932;2024-03-08T04:32:07;8.18;;;5.13;;
78931;SDS011;68331;53.362;55.932;2024-03-08T04:34:34;11.65;;;6.25;;
78931;SDS011;68331;53.362;55.932;2024-03-08T04:37:01;8.05;;;5.10;;
78931;SDS011;68331;53.362;55.932;2024-03-08T04:39:28;6.25;;;5.53;;
78931;SDS011;68331;53.362;55.932;2024-03-08T04:41:55;10.23;;;5.93;;
78931;SDS011;68331;53.362;55.932;2024-03-08T04:44:25;6.82;;;4.30;;
78931;SDS011;68331;53.362;55.932;2024-03-08T04:46:51;7.40;;;5.43;;
78931;SDS011;68331;53.362;55.932;2024-03-08T04:49:17;9.05;;;6.25;;
78931;SDS011;68331;53.362;55.932;2024-03-08T04:51:43;8.15;;;5.55;;
78931;SDS011;68331;53.362;55.932;2024-03-08T04:54:10;8.70;;;5.97;;
78931;SDS011;68331;53.362;55.932;2024-03-08T04:56:36;10.75;;;5.10;;
78931;SDS011;68331;53.362;55.932;2024-03-08T04:59:02;9.82;;;6.55;;
78931;SDS011;68331;53.362;55.932;2024-03-08T05:01:28;16.52;;;8.98;;
78931;SDS011;68331;53.362;55.932;2024-03-08T05:03:54;11.60;;;8.02;;
78931;SDS011;68331;53.362;55.932;2024-03-08T05:06:21;12.32;;;7.55;;
78931;SDS011;68331;53.362;55.932;2024-03-08T05:08:47;10.57;;;6.97;;
78931;SDS011;68331;53.362;55.932;2024-03-08T05:11:13;9.40;;;7.05;;
78931;SDS011;68331;53.362;55.932;2024-03-08T05:13:40;15.88;;;7.57;;
78931;SDS011;68331;53.362;55.932;2024-03-08T05:16:07;14.15;;;6.60;;
78931;SDS011;68331;53.362;55.932;2024-03-08T05:18:33;14.20;;;7.57;;
78931;SDS011;68331;53.362;55.932;2024-03-08T05:21:01;14.15;;;7.63;;
78931;SDS011;68331;53.362;55.932;2024-03-08T05:23:30;15.60;;;8.13;;
78931;SDS011;68331;53.362;55.932;2024-03-08T05:25:56;13.63;;;7.97;;
78931;SDS011;68331;53.362;55.932;2024-03-08T05:28:23;15.48;;;7.97;;
78931;SDS011;68331;53.362;55.932;2024-03-08T05:30:48;11.05;;;7.05;;
78931;SDS011;68331;53.362;55.932;2024-03-08T05:33:15;13.65;;;8.23;;
78931;SDS011;68331;53.362;55.932;2024-03-08T05:35:40;12.63;;;7.63;;
78931;SDS011;68331;53.362;55.932;2024-03-08T05:38:07;12.07;;;8.05;;
78931;SDS011;68331;53.362;55.932;2024-03-08T05:40:33;12.43;;;8.02;;
78931;SDS011;68331;53.362;55.932;2024-03-08T05:42:59;12.55;;;6.40;;
78931;SDS011;68331;53.362;55.932;2024-03-08T05:45:25;17.00;;;8.80;;
78931;SDS011;68331;53.362;55.932;2024-03-08T05:47:54;14.07;;;6.68;;
78931;SDS011;68331;53.362;55.932;2024-03-08T05:50:20;14.30;;;8.13;;
78931;SDS011;68331;53.362;55.932;2024-03-08T05:52:46;18.20;;;8.32;;
78931;SDS011;68331;53.362;55.932;2024-03-08T05:55:15;12.50;;;8.13;;
78931;SDS011;68331;53.362;55.932;2024-03-08T05:57:41;8.10;;;6.38;;
78931;SDS011;68331;53.362;55.932;2024-03-08T06:00:08;7.28;;;5.88;;
78931;SDS011;68331;53.362;55.932;2024-03-08T06:02:39;11.25;;;7.13;;
78931;SDS011;68331;53.362;55.932;2024-03-08T06:05:08;12.70;;;7.55;;
78931;SDS011;68331;53.362;55.932;2024-03-08T06:07:36;10.02;;;6.72;;
78931;SDS011;68331;53.362;55.932;2024-03-08T06:10:10;12.23;;;7.43;;
78931;SDS011;68331;53.362;55.932;2024-03-08T06:12:40;14.68;;;6.15;;
78931;SDS011;68331;53.362;55.932;2024-03-08T06:15:07;13.80;;;6.95;;
78931;SDS011;68331;53.362;55.932;2024-03-08T06:17:36;11.80;;;7.88;;
78931;SDS011;68331;53.362;55.932;2024-03-08T06:20:02;10.85;;;7.10;;
78931;SDS011;68331;53.362;55.932;2024-03-08T06:22:39;13.70;;;5.95;;
78931;SDS011;68331;53.362;55.932;2024-03-08T06:25:10;9.93;;;7.57;;
78931;SDS011;68331;53.362;55.932;2024-03-08T06:27:40;8.45;;;6.53;;
78931;SDS011;68331;53.362;55.932;2024-03-08T06:30:08;8.95;;;6.20;;
78931;SDS011;68331;53.362;55.932;2024-03-08T06:32:36;13.13;;;6.93;;
78931;SDS011;68331;53.362;55.932;2024-03-08T06:35:06;11.65;;;7.05;;
78931;SDS011;68331;53.362;55.932;2024-03-08T06:37:33;9.80;;;6.75;;
78931;SDS011;68331;53.362;55.932;2024-03-08T06:39:59;13.70;;;6.13;;
78931;SDS011;68331;53.362;55.932;2024-03-08T06:42:29;16.33;;;6.15;;
78931;SDS011;68331;53.362;55.932;2024-03-08T06:45:01;8.43;;;5.90;;
78931;SDS011;68331;53.362;55.932;2024-03-08T06:47:31;13.05;;;6.85;;
78931;SDS011;68331;53.362;55.932;2024-03-08T06:49:59;13.90;;;8.40;;
78931;SDS011;68331;53.362;55.932;2024-03-08T06:52:25;7.38;;;6.57;;
78931;SDS011;68331;53.362;55.932;2024-03-08T06:54:51;8.50;;;6.97;;
78931;SDS011;68331;53.362;55.932;2024-03-08T06:57:18;11.23;;;7.07;;
78931;SDS011;68331;53.362;55.932;2024-03-08T06:59:45;11.75;;;7.40;;
78931;SDS011;68331;53.362;55.932;2024-03-08T07:02:11;9.70;;;7.57;;
78931;SDS011;68331;53.362;55.932;2024-03-08T07:04:37;11.65;;;7.40;;
78931;SDS011;68331;53.362;55.932;2024-03-08T07:07:04;10.00;;;6.80;;
78931;SDS011;68331;53.362;55.932;2024-03-08T07:09:30;10.13;;;7.45;;
78931;SDS011;68331;53.362;55.932;2024-03-08T07:11:56;13.57;;;6.80;;
78931;SDS011;68331;53.362;55.932;2024-03-08T07:14:23;12.45;;;7.45;;
78931;SDS011;68331;53.362;55.932;2024-03-08T07:16:50;10.77;;;6.68;;
78931;SDS011;68331;53.362;55.932;2024-03-08T07:19:17;10.05;;;6.32;;
78931;SDS011;68331;53.362;55.932;2024-03-08T07:21:43;11.63;;;6.78;;
78931;SDS011;68331;53.362;55.932;2024-03-08T07:24:10;7.25;;;5.97;;
78931;SDS011;68331;53.362;55.932;2024-03-08T07:26:39;8.25;;;5.05;;
78931;SDS011;68331;53.362;55.932;2024-03-08T07:29:05;10.20;;;6.00;;
78931;SDS011;68331;53.362;55.932;2024-03-08T07:31:31;9.95;;;7.30;;
78931;SDS011;68331;53.362;55.932;2024-03-08T07:34:11;10.48;;;6.18;;
78931;SDS011;68331;53.362;55.932;2024-03-08T07:36:38;8.82;;;6.75;;
78931;SDS011;68331;53.362;55.932;2024-03-08T07:39:04;14.40;;;7.82;;
78931;SDS011;68331;53.362;55.932;2024-03-08T07:41:37;21.13;;;6.88;;
78931;SDS011;68331;53.362;55.932;2024-03-08T07:44:09;11.05;;;6.95;;
78931;SDS011;68331;53.362;55.932;2024-03-08T07:46:35;10.80;;;6.57;;
78931;SDS011;68331;53.362;55.932;2024-03-08T07:49:02;9.13;;;6.43;;
78931;SDS011;68331;53.362;55.932;2024-03-08T07:51:28;10.82;;;7.22;;
78931;SDS011;68331;53.362;55.932;2024-03-08T07:53:54;12.30;;;7.65;;
78931;SDS011;68331;53.362;55.932;2024-03-08T07:56:20;10.65;;;6.75;;
78931;SDS011;68331;53.362;55.932;2024-03-08T07:58:47;9.05;;;6.88;;
78931;SDS011;68331;53.362;55.932;2024-03-08T08:01:17;10.20;;;7.30;;
78931;SDS011;68331;53.362;55.932;2024-03-08T08:03:44;11.07;;;6.95;;
78931;SDS011;68331;53.362;55.932;2024-03-08T08:06:10;9.43;;;6.70;;
78931;SDS011;68331;53.362;55.932;2024-03-08T08:08:41;10.95;;;6.25;;
78931;SDS011;68331;53.362;55.932;2024-03-08T08:11:09;10.45;;;7.88;;
78931;SDS011;68331;53.362;55.932;2024-03-08T08:13:37;10.50;;;6.63;;
78931;SDS011;68331;53.362;55.932;2024-03-08T08:16:03;11.63;;;8.07;;
78931;SDS011;68331;53.362;55.932;2024-03-08T08:18:31;16.23;;;8.18;;
78931;SDS011;68331;53.362;55.932;2024-03-08T08:20:59;13.90;;;7.95;;
78931;SDS011;68331;53.362;55.932;2024-03-08T08:23:28;11.25;;;7.80;;
78931;SDS011;68331;53.362;55.932;2024-03-08T08:25:55;13.13;;;8.32;;
78931;SDS011;68331;53.362;55.932;2024-03-08T08:28:21;12.15;;;8.32;;
78931;SDS011;68331;53.362;55.932;2024-03-08T08:30:47;14.38;;;8.73;;
78931;SDS011;68331;53.362;55.932;2024-03-08T08:33:14;10.20;;;7.72;;
78931;SDS011;68331;53.362;55.932;2024-03-08T08:35:40;15.40;;;9.07;;
78931;SDS011;68331;53.362;55.932;2024-03-08T08:38:06;12.15;;;8.63;;
78931;SDS011;68331;53.362;55.932;2024-03-08T08:40:35;13.80;;;8.60;;
78931;SDS011;68331;53.362;55.932;2024-03-08T08:43:02;15.70;;;9.25;;
78931;SDS011;68331;53.362;55.932;2024-03-08T08:45:32;12.52;;;9.18;;
78931;SDS011;68331;53.362;55.932;2024-03-08T08:47:59;15.20;;;9.05;;
78931;SDS011;68331;53.362;55.932;2024-03-08T08:50:25;14.18;;;9.95;;
78931;SDS011;68331;53.362;55.932;2024-03-08T08:52:54;13.82;;;8.43;;
78931;SDS011;68331;53.362;55.932;2024-03-08T08:55:21;16.13;;;9.80;;
78931;SDS011;68331;53.362;55.932;2024-03-08T08:57:51;17.30;;;8.93;;
78931;SDS011;68331;53.362;55.932;2024-03-08T09:00:18;15.70;;;9.07;;
78931;SDS011;68331;53.362;55.932;2024-03-08T09:02:46;12.15;;;8.63;;
78931;SDS011;68331;53.362;55.932;2024-03-08T09:05:12;14.15;;;8.27;;
78931;SDS011;68331;53.362;55.932;2024-03-08T09:07:43;12.30;;;8.05;;
78931;SDS011;68331;53.362;55.932;2024-03-08T09:10:10;10.20;;;7.50;;
78931;SDS011;68331;53.362;55.932;2024-03-08T09:12:38;12.43;;;8.05;;
78931;SDS011;68331;53.362;55.932;2024-03-08T09:15:05;11.25;;;7.75;;
78931;SDS011;68331;53.362;55.932;2024-03-08T09:17:34;12.10;;;7.90;;
78931;SDS011;68331;53.362;55.932;2024-03-08T09:20:00;9.75;;;7.95;;
78931;SDS011;68331;53.362;55.932;2024-03-08T09:22:26;11.30;;;7.93;;
78931;SDS011;68331;53.362;55.932;2024-03-08T09:24:52;13.18;;;7.75;;
78931;SDS011;68331;53.362;55.932;2024-03-08T09:27:18;11.32;;;7.32;;
78931;SDS011;68331;53.362;55.932;2024-03-08T09:29:44;11.32;;;7.28;;
78931;SDS011;68331;53.362;55.932;2024-03-08T09:32:10;11.02;;;7.30;;
78931;SDS011;68331;53.362;55.932;2024-03-08T09:34:37;11.20;;;7.57;;
78931;SDS011;68331;53.362;55.932;2024-03-08T09:37:03;10.60;;;7.95;;
78931;SDS011;68331;53.362;55.932;2024-03-08T09:39:30;10.27;;;7.18;;
78931;SDS011;68331;53.362;55.932;2024-03-08T09:41:55;9.80;;;7.10;;
78931;SDS011;68331;53.362;55.932;2024-03-08T09:44:22;8.00;;;5.97;;
78931;SDS011;68331;53.362;55.932;2024-03-08T09:46:48;11.40;;;6.85;;
78931;SDS011;68331;53.362;55.932;2024-03-08T09:49:19;9.52;;;7.05;;
78931;SDS011;68331;53.362;55.932;2024-03-08T09:51:46;13.40;;;7.38;;
78931;SDS011;68331;53.362;55.932;2024-03-08T09:54:13;10.05;;;7.10;;
78931;SDS011;68331;53.362;55.932;2024-03-08T09:56:39;11.30;;;7.40;;
78931;SDS011;68331;53.362;55.932;2024-03-08T09:59:07;9.85;;;6.63;;
78931;SDS011;68331;53.362;55.932;2024-03-08T10:01:51;9.02;;;6.93;;
78931;SDS011;68331;53.362;55.932;2024-03-08T10:04:24;8.88;;;6.45;;
78931;SDS011;68331;53.362;55.932;2024-03-08T10:07:00;10.98;;;6.82;;
78931;SDS011;68331;53.362;55.932;2024-03-08T10:09:27;10.55;;;7.63;;
78931;SDS011;68331;53.362;55.932;2024-03-08T10:11:56;10.52;;;7.53;;
78931;SDS011;68331;53.362;55.932;2024-03-08T10:14:25;11.32;;;6.80;;
78931;SDS011;68331;53.362;55.932;2024-03-08T10:16:52;8.43;;;6.10;;
78931;SDS011;68331;53.362;55.932;2024-03-08T10:19:18;11.02;;;6.78;;
78931;SDS011;68331;53.362;55.932;2024-03-08T10:21:51;8.15;;;5.93;;
78931;SDS011;68331;53.362;55.932;2024-03-08T10:24:19;9.15;;;6.43;;
78931;SDS011;68331;53.362;55.932;2024-03-08T10:26:45;12.20;;;7.75;;
78931;SDS011;68331;53.362;55.932;2024-03-08T10:29:12;9.68;;;6.13;;
78931;SDS011;68331;53.362;55.932;2024-03-08T10:31:43;10.02;;;6.45;;
78931;SDS011;68331;53.362;55.932;2024-03-08T10:34:12;10.90;;;7.00;;
78931;SDS011;68331;53.362;55.932;2024-03-08T10:36:39;11.20;;;6.55;;
78931;SDS011;68331;53.362;55.932;2024-03-08T10:39:13;14.82;;;7.53;;
78931;SDS011;68331;53.362;55.932;2024-03-08T10:41:52;10.55;;;7.05;;
78931;SDS011;68331;53.362;55.932;2024-03-08T10:49:31;11.05;;;6.93;;
78931;SDS011;68331;53.362;55.932;2024-03-08T10:52:02;8.70;;;7.07;;
78931;SDS011;68331;53.362;55.932;2024-03-08T10:54:30;10.48;;;6.80;;
78931;SDS011;68331;53.362;55.932;2024-03-08T10:56:57;8.13;;;6.03;;
78931;SDS011;68331;53.362;55.932;2024-03-08T10:59:24;9.48;;;7.15;;
78931;SDS011;68331;53.362;55.932;2024-03-08T11:01:52;10.02;;;6.95;;
78931;SDS011;68331;53.362;55.932;2024-03-08T11:04:19;11.98;;;7.80;;
78931;SDS011;68331;53.362;55.932;2024-03-08T11:06:48;15.57;;;7.35;;
78931;SDS011;68331;53.362;55.932;2024-03-08T11:09:28;8.80;;;6.38;;
78931;SDS011;68331;53.362;55.932;2024-03-08T11:19:57;10.95;;;7.53;;
78931;SDS011;68331;53.362;55.932;2024-03-08T11:22:33;8.27;;;6.97;;
78931;SDS011;68331;53.362;55.932;2024-03-08T11:25:03;10.13;;;7.30;;
78931;SDS011;68331;53.362;55.932;2024-03-08T11:27:35;13.57;;;7.22;;
78931;SDS011;68331;53.362;55.932;2024-03-08T11:30:03;12.95;;;7.95;;
78931;SDS011;68331;53.362;55.932;2024-03-08T11:32:44;10.95;;;7.90;;
78931;SDS011;68331;53.362;55.932;2024-03-08T11:35:21;11.05;;;7.57;;
78931;SDS011;68331;53.362;55.932;2024-03-08T11:37:50;14.98;;;7.53;;
78931;SDS011;68331;53.362;55.932;2024-03-08T11:40:16;10.77;;;7.13;;
78931;SDS011;68331;53.362;55.932;2024-03-08T11:42:44;10.10;;;6.57;;
78931;SDS011;68331;53.362;55.932;2024-03-08T11:45:14;11.05;;;7.43;;
78931;SDS011;68331;53.362;55.932;2024-03-08T11:47:43;15.15;;;8.20;;
78931;SDS011;68331;53.362;55.932;2024-03-08T11:50:13;11.57;;;7.50;;
78931;SDS011;68331;53.362;55.932;2024-03-08T11:52:40;12.65;;;8.05;;
78931;SDS011;68331;53.362;55.932;2024-03-08T11:55:06;11.70;;;7.72;;
78931;SDS011;68331;53.362;55.932;2024-03-08T11:57:32;13.18;;;7.60;;
78931;SDS011;68331;53.362;55.932;2024-03-08T11:59:59;8.85;;;6.38;;
78931;SDS011;68331;53.362;55.932;2024-03-08T12:02:35;12.38;;;7.13;;
78931;SDS011;68331;53.362;55.932;2024-03-08T12:05:06;10.20;;;6.55;;
78931;SDS011;68331;53.362;55.932;2024-03-08T12:07:35;10.30;;;6.43;;
78931;SDS011;68331;53.362;55.932;2024-03-08T12:12:45;9.98;;;6.80;;
78931;SDS011;68331;53.362;55.932;2024-03-08T12:15:13;7.25;;;5.60;;
78931;SDS011;68331;53.362;55.932;2024-03-08T12:17:41;9.20;;;6.63;;
78931;SDS011;68331;53.362;55.932;2024-03-08T12:20:16;7.82;;;5.70;;
78931;SDS011;68331;53.362;55.932;2024-03-08T12:22:44;10.95;;;6.88;;
78931;SDS011;68331;53.362;55.932;2024-03-08T12:25:10;7.78;;;5.88;;
78931;SDS011;68331;53.362;55.932;2024-03-08T12:27:38;7.78;;;5.97;;
78931;SDS011;68331;53.362;55.932;2024-03-08T12:33:05;8.63;;;6.20;;
78931;SDS011;68331;53.362;55.932;2024-03-08T12:35:31;6.50;;;5.53;;
78931;SDS011;68331;53.362;55.932;2024-03-08T12:37:59;9.27;;;6.45;;
78931;SDS011;68331;53.362;55.932;2024-03-08T12:40:26;6.57;;;5.45;;
78931;SDS011;68331;53.362;55.932;2024-03-08T12:42:54;8.73;;;6.07;;
78931;SDS011;68331;53.362;55.932;2024-03-08T12:45:22;8.02;;;6.30;;
78931;SDS011;68331;53.362;55.932;2024-03-08T12:50:16;5.28;;;4.32;;
78931;SDS011;68331;53.362;55.932;2024-03-08T12:52:43;7.82;;;5.60;;
78931;SDS011;68331;53.362;55.932;2024-03-08T12:55:09;7.07;;;5.43;;
78931;SDS011;68331;53.362;55.932;2024-03-08T12:57:35;7.97;;;5.45;;
78931;SDS011;68331;53.362;55.932;2024-03-08T13:00:03;6.45;;;5.60;;
78931;SDS011;68331;53.362;55.932;2024-03-08T13:02:30;9.52;;;5.32;;
78931;SDS011;68331;53.362;55.932;2024-03-08T13:04:57;7.53;;;4.78;;
78931;SDS011;68331;53.362;55.932;2024-03-08T13:07:24;7.35;;;5.13;;
78931;SDS011;68331;53.362;55.932;2024-03-08T13:09:54;6.78;;;4.78;;
78931;SDS011;68331;53.362;55.932;2024-03-08T13:12:22;5.68;;;4.30;;
78931;SDS011;68331;53.362;55.932;2024-03-08T13:14:49;7.32;;;4.53;;
78931;SDS011;68331;53.362;55.932;2024-03-08T13:17:15;6.22;;;4.65;;
78931;SDS011;68331;53.362;55.932;2024-03-08T13:19:44;6.45;;;4.45;;
78931;SDS011;68331;53.362;55.932;2024-03-08T13:22:10;6.25;;;4.93;;
78931;SDS011;68331;53.362;55.932;2024-03-08T13:24:41;6.28;;;4.20;;
78931;SDS011;68331;53.362;55.932;2024-03-08T13:27:07;7.68;;;4.95;;
78931;SDS011;68331;53.362;55.932;2024-03-08T13:29:48;5.57;;;4.88;;
78931;SDS011;68331;53.362;55.932;2024-03-08T13:32:15;5.45;;;3.72;;
78931;SDS011;68331;53.362;55.932;2024-03-08T13:34:41;4.65;;;4.18;;
78931;SDS011;68331;53.362;55.932;2024-03-08T13:37:08;6.43;;;3.95;;
78931;SDS011;68331;53.362;55.932;2024-03-08T13:39:35;5.65;;;4.38;;
78931;SDS011;68331;53.362;55.932;2024-03-08T13:42:12;5.53;;;3.83;;
78931;SDS011;68331;53.362;55.932;2024-03-08T13:44:43;7.95;;;3.78;;
78931;SDS011;68331;53.362;55.932;2024-03-08T13:47:09;4.93;;;4.03;;
78931;SDS011;68331;53.362;55.932;2024-03-08T13:49:37;4.95;;;3.55;;
78931;SDS011;68331;53.362;55.932;2024-03-08T13:52:03;4.35;;;3.92;;
78931;SDS011;68331;53.362;55.932;2024-03-08T13:54:29;6.72;;;4.70;;
78931;SDS011;68331;53.362;55.932;2024-03-08T13:56:57;6.05;;;4.00;;
78931;SDS011;68331;53.362;55.932;2024-03-08T13:59:24;4.45;;;3.42;;
78931;SDS011;68331;53.362;55.932;2024-03-08T14:01:50;4.65;;;3.63;;
78931;SDS011;68331;53.362;55.932;2024-03-08T14:04:16;6.55;;;3.97;;
78931;SDS011;68331;53.362;55.932;2024-03-08T14:06:45;4.45;;;4.05;;
78931;SDS011;68331;53.362;55.932;2024-03-08T14:09:11;3.90;;;3.47;;
78931;SDS011;68331;53.362;55.932;2024-03-08T14:11:42;6.47;;;4.63;;
78931;SDS011;68331;53.362;55.932;2024-03-08T14:14:12;5.20;;;3.58;;
78931;SDS011;68331;53.362;55.932;2024-03-08T14:16:38;4.35;;;3.97;;
78931;SDS011;68331;53.362;55.932;2024-03-08T14:19:04;5.38;;;3.42;;
78931;SDS011;68331;53.362;55.932;2024-03-08T14:21:35;4.50;;;3.67;;
78931;SDS011;68331;53.362;55.932;2024-03-08T14:24:02;4.82;;;3.22;;
78931;SDS011;68331;53.362;55.932;2024-03-08T14:26:30;4.57;;;3.90;;
78931;SDS011;68331;53.362;55.932;2024-03-08T14:28:56;8.40;;;3.92;;
78931;SDS011;68331;53.362;55.932;2024-03-08T14:31:22;4.03;;;3.63;;
78931;SDS011;68331;53.362;55.932;2024-03-08T14:33:51;7.80;;;4.82;;
78931;SDS011;68331;53.362;55.932;2024-03-08T14:36:18;4.85;;;3.55;;
78931;SDS011;68331;53.362;55.932;2024-03-08T14:38:48;4.25;;;3.55;;
78931;SDS011;68331;53.362;55.932;2024-03-08T14:41:14;5.88;;;4.13;;
78931;SDS011;68331;53.362;55.932;2024-03-08T14:43:44;4.75;;;4.03;;
78931;SDS011;68331;53.362;55.932;2024-03-08T14:46:13;7.47;;;4.55;;
78931;SDS011;68331;53.362;55.932;2024-03-08T14:48:54;6.68;;;3.85;;
78931;SDS011;68331;53.362;55.932;2024-03-08T14:51:24;6.47;;;4.55;;
78931;SDS011;68331;53.362;55.932;2024-03-08T14:53:53;5.05;;;3.95;;
78931;SDS011;68331;53.362;55.932;2024-03-08T14:56:20;5.53;;;3.75;;
78931;SDS011;68331;53.362;55.932;2024-03-08T14:58:46;5.53;;;3.85;;